Ravenwood, Missouri
Current Conditions -  °F | °C
As of 10:55 PM on Friday 19 Dec 2014 (Local Time) from KICL Reporting Station
Overcast Overcast  
Wind Chill: 23°   Ceiling: 1100
Heat Index: 30°   Visibility: NA
Dew Point: 28°   Wind: 8mph
Humidity: 93%   Direction: 180°S
Pressure: 30.2"   Gusts: NA
Location:  40.35°N, 94.67°W
Report Text: KICL 200455Z AUTO 18007KT OVC011 M01/M02 A3020 RMK AO2
Loading
Personal Weather Stations






























Interactive Weather Map New forecast layout! Learn more

10-Day Weather Forecast

Advertisements
Track Severe Weather on mobile